createdAt,value
2017-05-26T00:13:04.872Z,99.84
2017-05-26T00:33:05.348Z,89.13
2017-05-26T00:53:05.627Z,97.06
2017-05-26T01:13:06.112Z,95.50
2017-05-26T01:33:06.542Z,58.03
2017-05-26T01:53:07.046Z,13.48
2017-05-26T02:13:07.408Z,74.87
2017-05-26T02:33:07.943Z,99.99
2017-05-26T02:52:24.967Z,58.47
2017-05-26T03:12:24.376Z,98.92
2017-05-26T03:32:24.922Z,41.43
2017-05-26T03:52:25.345Z,0.01
2017-05-26T04:12:25.780Z,0.00
2017-05-26T04:32:26.306Z,0.34
2017-05-26T04:52:26.789Z,1.02
2017-05-26T05:12:27.266Z,0.09
2017-05-26T05:32:27.838Z,0.00
2017-05-26T05:52:28.388Z,0.01
2017-05-26T06:12:28.848Z,0.00
2017-05-26T06:32:29.470Z,0.01
2017-05-26T06:52:29.877Z,0.00
2017-05-26T07:12:30.493Z,0.00
2017-05-26T07:32:31.010Z,0.00
2017-05-26T07:52:31.493Z,0.05
2017-05-26T08:12:31.838Z,0.13
2017-05-26T08:32:32.488Z,0.12
2017-05-26T08:52:32.833Z,0.14
2017-05-26T09:22:33.627Z,4.57
2017-05-26T09:42:34.168Z,9.14
2017-05-26T10:02:34.676Z,11.40
2017-05-26T10:22:35.126Z,12.33
2017-05-26T10:42:35.545Z,11.80
2017-05-26T11:02:36.147Z,10.88
2017-05-26T11:22:36.565Z,9.82
2017-05-26T11:42:36.939Z,9.50
2017-05-26T12:02:37.535Z,9.95
2017-05-26T12:22:38.000Z,9.16
2017-05-26T12:42:38.405Z,10.75
2017-05-26T13:02:39.015Z,10.43
2017-05-26T13:22:39.476Z,6.59
2017-05-26T13:42:40.006Z,4.44
2017-05-26T14:02:40.537Z,1.05
2017-05-26T14:23:25.471Z,50.02
2017-05-26T14:42:41.433Z,50.09
2017-05-26T15:02:41.984Z,0.02
2017-05-26T15:22:42.419Z,0.02
2017-05-26T15:42:42.823Z,0.00
2017-05-26T16:02:43.315Z,0.00
2017-05-26T16:22:43.847Z,0.00
2017-05-26T16:42:44.397Z,0.00
2017-05-26T17:07:45.013Z,0.00
2017-05-26T17:27:45.501Z,0.00
2017-05-26T17:47:46.007Z,0.00
2017-05-26T18:07:46.558Z,0.00
2017-05-26T18:27:47.179Z,0.00
2017-05-26T18:47:47.607Z,0.00
2017-05-26T19:07:48.152Z,0.00
2017-05-26T19:27:48.679Z,21.52
2017-05-26T19:47:49.242Z,86.19
2017-05-26T20:08:34.189Z,77.42
2017-05-26T20:28:34.664Z,87.49
2017-05-26T20:48:35.222Z,89.19
2017-05-26T21:08:35.587Z,16.74
2017-05-26T21:28:36.026Z,40.49
2017-05-26T21:48:36.412Z,83.20
2017-05-26T22:08:36.869Z,96.88
2017-05-26T22:28:37.215Z,98.90
2017-05-26T22:48:37.576Z,99.26
2017-05-26T23:08:37.940Z,99.12
2017-05-26T23:43:38.704Z,99.07
